Time;durP1;ratioP1;P1;durP2;ratioP2;P2;SDS_P1;SDS_P2;PMS_P1;PMS_P2;Temp;Humidity;BMP_temperature;BMP_pressure;BME280_temperature;BME280_humidity;BME280_pressure;Samples;Min_cycle;Max_cycle;Signal;HPM_P1;HPM_P2
2023/05/15 00:01:41;;;;;;;54.78;36.75;;;;;;;;;;5056869;28;20040;-73
2023/05/15 00:04:07;;;;;;;55.80;36.40;;;;;;;;;;5056767;28;20055;-73
2023/05/15 00:06:33;;;;;;;59.28;37.30;;;;;;;;;;5055720;28;20048;-73
2023/05/15 00:08:59;;;;;;;54.65;36.30;;;;;;;;;;5055434;28;20283;-74
2023/05/15 00:11:26;;;;;;;55.45;36.15;;;;;;;;;;5071401;28;20037;-73
2023/05/15 00:13:53;;;;;;;57.47;38.00;;;;;;;;;;5069324;28;20144;-73
2023/05/15 00:16:19;;;;;;;60.05;37.53;;;;;;;;;;5038061;28;20066;-73
2023/05/15 00:18:45;;;;;;;58.25;37.78;;;;;;;;;;5057370;28;20937;-73
2023/05/15 00:21:11;;;;;;;59.45;37.03;;;;;;;;;;5058015;28;20178;-73
2023/05/15 00:23:37;;;;;;;66.38;38.83;;;;;;;;;;5058068;28;20056;-74
2023/05/15 00:26:03;;;;;;;65.32;40.08;;;;;;;;;;5058737;28;20403;-73
2023/05/15 00:28:30;;;;;;;60.70;38.55;;;;;;;;;;5057251;28;20044;-73
2023/05/15 00:30:56;;;;;;;65.95;40.95;;;;;;;;;;5058295;28;20048;-73
2023/05/15 00:33:22;;;;;;;63.10;38.90;;;;;;;;;;5057610;28;21283;-73
2023/05/15 00:35:48;;;;;;;65.35;40.03;;;;;;;;;;5059796;28;20049;-73
2023/05/15 00:38:14;;;;;;;64.97;38.78;;;;;;;;;;5059121;28;20486;-74
2023/05/15 00:40:41;;;;;;;65.70;38.00;;;;;;;;;;5056820;28;20059;-73
2023/05/15 00:43:08;;;;;;;68.88;39.53;;;;;;;;;;5057592;28;20409;-74
2023/05/15 00:45:34;;;;;;;80.10;41.15;;;;;;;;;;5055085;28;20048;-74
2023/05/15 00:48:00;;;;;;;76.60;40.85;;;;;;;;;;5055082;28;20036;-73
2023/05/15 00:50:26;;;;;;;73.72;41.40;;;;;;;;;;5056999;28;20046;-73
2023/05/15 00:52:53;;;;;;;73.57;41.67;;;;;;;;;;5058004;28;20063;-73
2023/05/15 00:55:19;;;;;;;71.05;41.38;;;;;;;;;;5056212;28;20043;-73
2023/05/15 00:57:45;;;;;;;78.28;42.05;;;;;;;;;;5056803;28;22427;-74
2023/05/15 01:00:14;;;;;;;84.57;44.28;;;;;;;;;;5057932;28;20044;-73
2023/05/15 01:02:40;;;;;;;92.88;44.30;;;;;;;;;;5070841;28;20040;-73
2023/05/15 01:05:07;;;;;;;81.50;43.85;;;;;;;;;;5080854;28;20040;-74
2023/05/15 01:07:35;;;;;;;87.57;44.13;;;;;;;;;;5076222;28;20109;-74
2023/05/15 01:10:03;;;;;;;80.13;44.80;;;;;;;;;;5062859;28;20055;-74
2023/05/15 01:12:29;;;;;;;86.78;43.17;;;;;;;;;;5064004;28;20055;-73
2023/05/15 01:14:56;;;;;;;86.93;46.05;;;;;;;;;;5058393;28;20114;-74
2023/05/15 01:17:22;;;;;;;83.63;46.70;;;;;;;;;;5058038;28;20069;-73
2023/05/15 01:19:50;;;;;;;82.25;45.17;;;;;;;;;;5058446;28;20044;-73
2023/05/15 01:22:35;;;;;;;78.35;45.17;;;;;;;;;;5058424;28;20883;-72
2023/05/15 01:25:04;;;;;;;84.65;45.03;;;;;;;;;;5058767;28;20036;-73
2023/05/15 01:27:44;;;;;;;81.10;44.50;;;;;;;;;;5057453;28;20040;-73
2023/05/15 01:30:19;;;;;;;80.65;43.38;;;;;;;;;;5055422;28;20055;-73
2023/05/15 01:32:58;;;;;;;75.18;41.17;;;;;;;;;;5056280;28;21050;-73
2023/05/15 01:35:29;;;;;;;73.38;40.47;;;;;;;;;;5057006;28;20040;-73
2023/05/15 01:38:08;;;;;;;76.70;40.83;;;;;;;;;;5057330;28;20986;-73
2023/05/15 01:40:34;;;;;;;79.32;38.90;;;;;;;;;;5055219;28;20052;-73
2023/05/15 01:43:03;;;;;;;84.15;39.33;;;;;;;;;;5058055;28;20077;-73
2023/05/15 01:45:29;;;;;;;98.85;40.22;;;;;;;;;;5055192;28;20059;-73
2023/05/15 01:47:56;;;;;;;75.78;38.55;;;;;;;;;;5057971;28;20523;-73
2023/05/15 01:50:22;;;;;;;71.15;37.45;;;;;;;;;;5055795;28;20040;-73
2023/05/15 01:52:53;;;;;;;74.38;38.00;;;;;;;;;;5051733;28;20094;-73
2023/05/15 01:55:20;;;;;;;80.15;35.35;;;;;;;;;;5050458;28;20048;-73
2023/05/15 01:57:48;;;;;;;125.80;36.13;;;;;;;;;;5051546;28;20116;-73
2023/05/15 02:00:14;;;;;;;249.40;36.70;;;;;;;;;;5051423;28;20229;-73
2023/05/15 02:02:41;;;;;;;156.02;36.75;;;;;;;;;;5053575;28;20549;-73
2023/05/15 02:05:08;;;;;;;188.35;34.65;;;;;;;;;;5051186;28;20040;-73
2023/05/15 02:07:34;;;;;;;109.13;36.78;;;;;;;;;;5052830;28;20522;-73
2023/05/15 02:10:01;;;;;;;196.52;34.55;;;;;;;;;;5034691;28;20131;-72
2023/05/15 02:12:28;;;;;;;244.25;35.28;;;;;;;;;;5035674;28;20174;-73
2023/05/15 02:14:54;;;;;;;229.02;34.30;;;;;;;;;;5053693;28;20090;-73
2023/05/15 02:17:22;;;;;;;200.75;34.58;;;;;;;;;;5053795;28;20051;-73
2023/05/15 02:19:48;;;;;;;369.88;35.70;;;;;;;;;;5052809;28;20044;-73
2023/05/15 02:22:14;;;;;;;372.52;36.22;;;;;;;;;;5055779;28;20051;-73
2023/05/15 02:24:40;;;;;;;367.48;37.95;;;;;;;;;;5056387;28;20074;-73
2023/05/15 02:27:17;;;;;;;303.98;43.47;;;;;;;;;;5044193;28;20640;-73
2023/05/15 02:30:03;;;;;;;275.95;39.20;;;;;;;;;;5063599;28;20045;-72
2023/05/15 02:32:29;;;;;;;281.27;39.53;;;;;;;;;;5034113;28;20060;-73
2023/05/15 02:35:02;;;;;;;401.50;40.15;;;;;;;;;;5064476;28;20047;-72
2023/05/15 02:37:31;;;;;;;204.07;40.95;;;;;;;;;;5064633;28;20458;-73
2023/05/15 02:39:58;;;;;;;405.70;42.10;;;;;;;;;;5064607;28;20044;-73
2023/05/15 02:42:26;;;;;;;384.38;42.10;;;;;;;;;;5061908;28;20751;-73
2023/05/15 02:44:53;;;;;;;383.58;42.85;;;;;;;;;;5059156;28;20098;-73
2023/05/15 02:47:20;;;;;;;202.48;44.22;;;;;;;;;;5059226;28;20040;-73
2023/05/15 02:49:46;;;;;;;137.38;43.28;;;;;;;;;;5059698;28;20063;-73
2023/05/15 02:52:13;;;;;;;111.18;43.72;;;;;;;;;;5071697;28;20110;-73
2023/05/15 02:54:39;;;;;;;216.80;43.88;;;;;;;;;;5053946;28;20044;-73
2023/05/15 02:57:06;;;;;;;183.68;47.53;;;;;;;;;;5055801;28;20044;-73
2023/05/15 02:59:33;;;;;;;132.95;47.78;;;;;;;;;;5054590;28;20041;-73
2023/05/15 03:01:59;;;;;;;137.65;50.40;;;;;;;;;;5053598;28;20044;-73
2023/05/15 03:04:25;;;;;;;145.20;47.08;;;;;;;;;;5059862;28;20057;-72
2023/05/15 03:06:51;;;;;;;97.82;47.22;;;;;;;;;;5057889;28;20048;-73
2023/05/15 03:09:17;;;;;;;132.80;45.03;;;;;;;;;;5057306;28;20044;-73
2023/05/15 03:11:44;;;;;;;89.60;44.95;;;;;;;;;;5059745;28;20105;-72
2023/05/15 03:14:10;;;;;;;101.85;43.72;;;;;;;;;;5062255;28;20078;-73
2023/05/15 03:16:37;;;;;;;81.80;41.67;;;;;;;;;;5064244;28;20045;-72
2023/05/15 03:19:04;;;;;;;100.43;40.45;;;;;;;;;;5059376;28;20040;-73
2023/05/15 03:21:30;;;;;;;110.10;41.97;;;;;;;;;;5065727;28;20075;-73
2023/05/15 03:23:56;;;;;;;148.10;41.00;;;;;;;;;;5068431;28;20066;-73
2023/05/15 03:26:23;;;;;;;230.82;42.28;;;;;;;;;;5064028;28;20062;-73
2023/05/15 03:28:49;;;;;;;156.05;39.72;;;;;;;;;;5079979;28;20060;-72
2023/05/15 03:31:15;;;;;;;213.65;37.60;;;;;;;;;;5055754;28;20047;-73
2023/05/15 03:33:42;;;;;;;166.77;37.88;;;;;;;;;;5056868;28;20072;-73
2023/05/15 03:36:08;;;;;;;84.90;38.75;;;;;;;;;;5039149;28;20453;-73
2023/05/15 03:38:34;;;;;;;116.80;39.05;;;;;;;;;;5051285;28;20679;-73
2023/05/15 03:41:00;;;;;;;99.50;37.78;;;;;;;;;;5052528;28;20044;-73
2023/05/15 03:43:26;;;;;;;82.15;33.78;;;;;;;;;;5054524;28;20048;-73
2023/05/15 03:45:52;;;;;;;66.78;33.40;;;;;;;;;;5052921;28;20058;-73
2023/05/15 03:48:18;;;;;;;91.32;34.92;;;;;;;;;;5020563;28;20044;-73
2023/05/15 03:50:44;;;;;;;79.15;33.40;;;;;;;;;;5055569;28;20047;-72
2023/05/15 03:53:11;;;;;;;76.38;34.97;;;;;;;;;;5053568;28;20448;-72
2023/05/15 03:55:37;;;;;;;68.45;32.25;;;;;;;;;;5053679;28;20040;-72
2023/05/15 03:58:03;;;;;;;70.03;34.10;;;;;;;;;;5049732;28;20407;-72
2023/05/15 04:00:29;;;;;;;59.05;32.22;;;;;;;;;;5055434;28;20036;-72
2023/05/15 04:02:55;;;;;;;54.90;33.13;;;;;;;;;;5035639;28;21738;-72
2023/05/15 04:05:21;;;;;;;56.60;32.22;;;;;;;;;;5052009;28;20048;-72
2023/05/15 04:07:47;;;;;;;53.67;30.95;;;;;;;;;;5048797;28;20450;-72
2023/05/15 04:10:13;;;;;;;44.03;28.60;;;;;;;;;;5050373;28;20079;-72
2023/05/15 04:12:39;;;;;;;43.80;27.67;;;;;;;;;;5052301;28;20048;-73
2023/05/15 04:15:16;;;;;;;43.72;28.00;;;;;;;;;;5068727;27;20051;-72
2023/05/15 04:17:43;;;;;;;42.75;27.77;;;;;;;;;;5048929;28;20048;-72
2023/05/15 04:20:10;;;;;;;39.88;26.63;;;;;;;;;;5038522;28;20047;-72
2023/05/15 04:22:36;;;;;;;40.47;28.17;;;;;;;;;;5050696;28;20668;-72
2023/05/15 04:25:03;;;;;;;37.10;28.55;;;;;;;;;;5051175;28;20044;-72
2023/05/15 04:27:30;;;;;;;41.13;28.83;;;;;;;;;;5055387;28;20510;-71
2023/05/15 04:29:56;;;;;;;41.97;31.17;;;;;;;;;;5050679;28;20036;-72
2023/05/15 04:32:22;;;;;;;42.03;30.23;;;;;;;;;;5048525;28;20036;-72
2023/05/15 04:34:48;;;;;;;48.17;34.17;;;;;;;;;;5048384;28;20052;-72
2023/05/15 04:37:16;;;;;;;48.55;33.58;;;;;;;;;;5049943;28;20067;-73
2023/05/15 04:39:42;;;;;;;46.88;32.50;;;;;;;;;;5049494;28;20649;-73
2023/05/15 04:42:08;;;;;;;40.47;30.75;;;;;;;;;;5048361;28;20667;-73
2023/05/15 04:44:34;;;;;;;34.15;28.02;;;;;;;;;;5051108;28;20052;-74
2023/05/15 04:47:00;;;;;;;36.92;27.92;;;;;;;;;;5051771;28;20044;-73
2023/05/15 04:49:26;;;;;;;35.65;27.70;;;;;;;;;;5052173;28;20160;-73
2023/05/15 04:51:52;;;;;;;37.58;30.35;;;;;;;;;;5053604;28;20044;-73
2023/05/15 04:54:18;;;;;;;35.50;27.52;;;;;;;;;;5055874;28;20043;-73
2023/05/15 04:56:45;;;;;;;39.10;29.00;;;;;;;;;;5059362;28;20039;-72
2023/05/15 04:59:12;;;;;;;33.25;25.80;;;;;;;;;;5064060;28;20521;-73
2023/05/15 05:01:38;;;;;;;33.45;27.88;;;;;;;;;;5065428;28;20044;-73
2023/05/15 05:04:04;;;;;;;35.13;25.95;;;;;;;;;;5057901;28;20131;-73
2023/05/15 05:06:30;;;;;;;30.10;25.65;;;;;;;;;;5056328;28;20044;-72
2023/05/15 05:08:57;;;;;;;41.28;30.15;;;;;;;;;;5057126;28;20052;-73
2023/05/15 05:11:23;;;;;;;41.08;30.35;;;;;;;;;;5053009;28;20151;-73
2023/05/15 05:13:49;;;;;;;33.10;27.48;;;;;;;;;;5054875;28;20044;-73
2023/05/15 05:16:15;;;;;;;27.45;24.02;;;;;;;;;;5051621;28;20847;-73
2023/05/15 05:18:41;;;;;;;28.65;23.33;;;;;;;;;;5052452;28;20942;-73
2023/05/15 05:21:08;;;;;;;42.67;29.85;;;;;;;;;;5057340;28;20435;-74
2023/05/15 05:23:34;;;;;;;32.35;25.90;;;;;;;;;;5054540;28;20044;-73
2023/05/15 05:26:00;;;;;;;26.13;23.33;;;;;;;;;;5055838;28;20044;-73
2023/05/15 05:28:26;;;;;;;30.67;24.45;;;;;;;;;;5058602;28;20288;-73
2023/05/15 05:30:52;;;;;;;31.75;26.85;;;;;;;;;;5055477;28;20051;-73
2023/05/15 05:33:18;;;;;;;29.40;26.35;;;;;;;;;;5057505;28;20488;-73
2023/05/15 05:35:44;;;;;;;31.83;26.67;;;;;;;;;;5057712;28;20062;-73
2023/05/15 05:38:10;;;;;;;29.55;23.42;;;;;;;;;;5055693;28;20117;-73
2023/05/15 05:40:37;;;;;;;29.17;25.38;;;;;;;;;;5056009;28;20561;-73
2023/05/15 05:43:03;;;;;;;24.88;22.27;;;;;;;;;;5057086;28;20040;-73
2023/05/15 05:45:29;;;;;;;24.33;21.25;;;;;;;;;;5057682;28;20033;-72
2023/05/15 05:47:56;;;;;;;29.63;25.52;;;;;;;;;;5055407;28;20051;-73
2023/05/15 05:50:22;;;;;;;30.60;26.58;;;;;;;;;;5054379;28;20045;-72
2023/05/15 05:52:49;;;;;;;38.55;29.25;;;;;;;;;;5052537;28;20063;-73
2023/05/15 05:55:15;;;;;;;25.80;22.70;;;;;;;;;;5053165;28;20036;-73
2023/05/15 05:57:41;;;;;;;27.20;23.83;;;;;;;;;;5058845;28;20040;-73
2023/05/15 06:00:09;;;;;;;31.23;24.70;;;;;;;;;;5055705;28;20424;-73
2023/05/15 06:02:35;;;;;;;28.17;24.27;;;;;;;;;;5078449;28;22015;-72
2023/05/15 06:05:02;;;;;;;26.52;23.70;;;;;;;;;;5061860;28;20040;-73
2023/05/15 06:07:28;;;;;;;30.45;24.83;;;;;;;;;;5043397;28;20048;-73
2023/05/15 06:09:54;;;;;;;22.77;20.30;;;;;;;;;;5060828;28;20076;-73
2023/05/15 06:12:20;;;;;;;27.58;21.92;;;;;;;;;;5059307;28;21293;-74
2023/05/15 06:14:46;;;;;;;20.95;18.77;;;;;;;;;;5060498;28;20048;-73
2023/05/15 06:17:12;;;;;;;21.67;19.13;;;;;;;;;;5059941;28;20300;-74
2023/05/15 06:19:38;;;;;;;23.38;18.42;;;;;;;;;;5062030;28;20127;-74
2023/05/15 06:22:05;;;;;;;20.15;16.45;;;;;;;;;;5062967;28;20048;-73
2023/05/15 06:24:31;;;;;;;22.80;18.52;;;;;;;;;;5060416;28;20052;-74
2023/05/15 06:26:57;;;;;;;21.67;17.45;;;;;;;;;;5063450;28;20162;-74
2023/05/15 06:29:23;;;;;;;18.58;15.65;;;;;;;;;;5060181;28;20130;-73
2023/05/15 06:31:49;;;;;;;17.75;15.80;;;;;;;;;;5060866;28;20047;-74
2023/05/15 06:34:15;;;;;;;16.92;14.30;;;;;;;;;;5059136;28;20576;-74
2023/05/15 06:36:41;;;;;;;19.27;15.32;;;;;;;;;;5060915;28;20052;-73
2023/05/15 06:39:10;;;;;;;21.08;16.63;;;;;;;;;;5060208;28;20058;-73
2023/05/15 06:41:37;;;;;;;17.85;15.95;;;;;;;;;;5060592;28;20440;-73
2023/05/15 06:44:03;;;;;;;20.20;16.42;;;;;;;;;;5059728;28;20052;-73
2023/05/15 06:46:30;;;;;;;17.48;15.75;;;;;;;;;;5076079;28;20062;-74
2023/05/15 06:48:56;;;;;;;18.02;16.13;;;;;;;;;;5061152;28;20229;-69
2023/05/15 06:51:22;;;;;;;17.70;15.82;;;;;;;;;;5060843;28;20039;-68
2023/05/15 06:53:48;;;;;;;20.15;15.80;;;;;;;;;;5061013;28;20139;-68
2023/05/15 06:56:14;;;;;;;20.65;17.38;;;;;;;;;;5059567;28;20490;-68
2023/05/15 06:58:40;;;;;;;17.38;15.15;;;;;;;;;;5061770;28;20048;-68
2023/05/15 07:01:08;;;;;;;16.55;14.85;;;;;;;;;;5058504;28;21701;-68
2023/05/15 07:03:34;;;;;;;20.35;15.23;;;;;;;;;;5061002;28;20044;-68
2023/05/15 07:06:00;;;;;;;13.77;12.35;;;;;;;;;;5075356;28;20044;-68
2023/05/15 07:08:26;;;;;;;15.20;12.82;;;;;;;;;;5059297;28;20044;-68
2023/05/15 07:10:52;;;;;;;19.42;13.73;;;;;;;;;;5058559;28;20047;-69
2023/05/15 07:13:20;;;;;;;15.88;14.10;;;;;;;;;;5060798;28;20074;-68
2023/05/15 07:15:46;;;;;;;21.75;13.18;;;;;;;;;;5042796;28;20071;-68
2023/05/15 07:18:12;;;;;;;17.42;13.65;;;;;;;;;;5063137;28;20098;-68
2023/05/15 07:20:39;;;;;;;12.48;11.23;;;;;;;;;;5060878;28;20127;-69
2023/05/15 07:23:05;;;;;;;12.85;11.52;;;;;;;;;;5076587;27;21989;-68
2023/05/15 07:25:31;;;;;;;13.25;11.40;;;;;;;;;;5060742;28;20168;-69
2023/05/15 07:27:57;;;;;;;12.07;10.80;;;;;;;;;;5062121;28;20083;-68
2023/05/15 07:30:26;;;;;;;14.73;10.32;;;;;;;;;;5061909;28;20908;-69
2023/05/15 07:32:52;;;;;;;12.85;10.77;;;;;;;;;;5062694;28;20203;-68
2023/05/15 07:35:18;;;;;;;14.85;12.30;;;;;;;;;;5061434;28;20040;-68
2023/05/15 07:37:45;;;;;;;12.98;11.65;;;;;;;;;;5060334;28;20056;-68
2023/05/15 07:40:11;;;;;;;14.23;11.70;;;;;;;;;;5060344;28;20120;-68
2023/05/15 07:42:38;;;;;;;12.15;10.95;;;;;;;;;;5062082;28;20488;-68
2023/05/15 07:45:05;;;;;;;13.25;9.75;;;;;;;;;;5077473;28;20082;-68
2023/05/15 07:47:31;;;;;;;11.30;10.20;;;;;;;;;;5050937;28;20127;-68
2023/05/15 07:49:57;;;;;;;12.88;10.65;;;;;;;;;;5062141;28;20123;-68
2023/05/15 07:52:23;;;;;;;15.65;10.35;;;;;;;;;;5060302;28;20041;-68
2023/05/15 07:54:49;;;;;;;11.77;10.70;;;;;;;;;;5059934;28;20044;-68
2023/05/15 07:57:15;;;;;;;13.38;10.25;;;;;;;;;;5071432;28;20048;-68
2023/05/15 07:59:42;;;;;;;10.50;9.40;;;;;;;;;;5077530;28;20594;-68
2023/05/15 08:02:08;;;;;;;9.35;8.23;;;;;;;;;;5069761;28;20040;-68
2023/05/15 08:04:34;;;;;;;9.55;8.40;;;;;;;;;;5061658;28;20040;-68
2023/05/15 08:07:00;;;;;;;12.07;8.85;;;;;;;;;;5065661;28;20036;-68
2023/05/15 08:09:26;;;;;;;10.15;7.95;;;;;;;;;;5061878;28;20052;-68
2023/05/15 08:11:55;;;;;;;13.38;10.13;;;;;;;;;;5075125;28;20040;-68
2023/05/15 08:14:21;;;;;;;10.60;9.60;;;;;;;;;;5061305;28;20495;-68
2023/05/15 08:16:50;;;;;;;11.98;10.15;;;;;;;;;;5058500;28;20071;-68
2023/05/15 08:19:16;;;;;;;9.40;8.48;;;;;;;;;;5059685;28;20068;-68
2023/05/15 08:21:42;;;;;;;12.55;8.52;;;;;;;;;;5060742;28;21029;-68
2023/05/15 08:24:08;;;;;;;9.70;8.13;;;;;;;;;;5054641;28;20044;-68
2023/05/15 08:26:34;;;;;;;12.05;8.55;;;;;;;;;;5057821;28;20048;-68
2023/05/15 08:29:00;;;;;;;11.27;9.45;;;;;;;;;;5058868;28;20040;-68
2023/05/15 08:31:26;;;;;;;10.52;8.00;;;;;;;;;;5058693;28;20078;-68
2023/05/15 08:33:53;;;;;;;11.20;8.15;;;;;;;;;;5060553;28;20078;-68
2023/05/15 08:36:19;;;;;;;12.88;8.80;;;;;;;;;;5057523;28;20121;-68
2023/05/15 08:38:45;;;;;;;9.68;8.65;;;;;;;;;;5059898;28;20043;-68
2023/05/15 08:41:16;;;;;;;10.65;8.48;;;;;;;;;;5059444;28;20040;-68
2023/05/15 08:43:42;;;;;;;8.23;7.38;;;;;;;;;;5056846;28;21891;-68
2023/05/15 08:46:09;;;;;;;10.52;7.57;;;;;;;;;;5056311;28;20044;-68
2023/05/15 08:48:37;;;;;;;12.30;8.50;;;;;;;;;;5058503;28;20043;-68
2023/05/15 08:51:03;;;;;;;9.23;7.05;;;;;;;;;;5040140;28;20044;-68
2023/05/15 08:53:29;;;;;;;9.57;6.88;;;;;;;;;;5057692;28;20415;-68
2023/05/15 08:55:56;;;;;;;8.20;7.30;;;;;;;;;;5057412;28;20553;-68
2023/05/15 08:58:24;;;;;;;11.75;7.90;;;;;;;;;;5058666;28;20040;-68
2023/05/15 09:00:51;;;;;;;7.75;6.93;;;;;;;;;;5074688;28;20048;-68
2023/05/15 09:03:18;;;;;;;8.05;6.97;;;;;;;;;;5056638;28;20523;-68
2023/05/15 09:05:46;;;;;;;9.93;8.95;;;;;;;;;;5059617;28;20424;-65
2023/05/15 09:08:12;;;;;;;7.35;6.28;;;;;;;;;;5057301;28;20043;-67
2023/05/15 09:10:38;;;;;;;11.18;7.88;;;;;;;;;;5073999;28;20047;-66
2023/05/15 09:13:06;;;;;;;8.90;7.72;;;;;;;;;;5056826;28;20170;-67
2023/05/15 09:15:32;;;;;;;7.25;5.63;;;;;;;;;;5055511;28;20538;-67
2023/05/15 09:17:58;;;;;;;8.88;7.85;;;;;;;;;;5057189;28;20048;-66
2023/05/15 09:20:27;;;;;;;8.90;8.00;;;;;;;;;;5054543;28;20044;-66
2023/05/15 09:22:54;;;;;;;10.32;7.85;;;;;;;;;;5059572;28;20055;-66
2023/05/15 09:25:33;;;;;;;8.38;7.63;;;;;;;;;;5058791;28;20127;-66
2023/05/15 09:28:03;;;;;;;7.93;6.97;;;;;;;;;;5061625;28;20040;-87
2023/05/15 09:30:33;;;;;;;11.30;7.50;;;;;;;;;;5076940;28;20044;-85
2023/05/15 09:33:02;;;;;;;11.07;7.47;;;;;;;;;;5075719;28;20060;-85
2023/05/15 09:35:31;;;;;;;9.40;7.57;;;;;;;;;;5049839;28;20050;-86
2023/05/15 09:38:01;;;;;;;11.40;6.15;;;;;;;;;;5052698;28;20048;-84
2023/05/15 09:40:31;;;;;;;8.10;7.30;;;;;;;;;;5068551;28;20139;-85
2023/05/15 09:43:00;;;;;;;10.38;7.30;;;;;;;;;;5071005;28;20821;-87
2023/05/15 09:45:28;;;;;;;8.80;7.63;;;;;;;;;;5054598;28;20124;-86
2023/05/15 09:47:56;;;;;;;8.80;7.88;;;;;;;;;;5053465;28;20036;-86
2023/05/15 09:50:23;;;;;;;7.88;6.93;;;;;;;;;;5055210;28;20044;-85
2023/05/15 09:52:50;;;;;;;10.15;6.65;;;;;;;;;;5069281;28;20039;-85
2023/05/15 09:55:18;;;;;;;8.57;7.70;;;;;;;;;;5067395;28;20516;-85
2023/05/15 09:57:45;;;;;;;8.02;6.93;;;;;;;;;;5055185;28;20075;-83
2023/05/15 10:00:11;;;;;;;11.68;8.32;;;;;;;;;;5049159;28;20051;-83
2023/05/15 10:02:40;;;;;;;7.97;6.70;;;;;;;;;;5084879;27;20507;-84
2023/05/15 10:05:07;;;;;;;10.57;7.50;;;;;;;;;;5067252;28;20044;-83
2023/05/15 10:07:34;;;;;;;7.68;6.45;;;;;;;;;;5050296;28;20044;-83
2023/05/15 10:10:04;;;;;;;9.25;7.32;;;;;;;;;;5071540;28;20396;-84
2023/05/15 10:12:31;;;;;;;7.43;6.68;;;;;;;;;;5072634;28;21839;-84
2023/05/15 10:14:58;;;;;;;7.90;7.13;;;;;;;;;;5058183;28;20083;-84
2023/05/15 10:17:25;;;;;;;7.82;6.50;;;;;;;;;;5071067;28;20139;-83
2023/05/15 10:19:51;;;;;;;7.80;6.28;;;;;;;;;;5079433;28;20079;-84
2023/05/15 10:22:22;;;;;;;8.65;7.38;;;;;;;;;;5074982;28;20054;-84
2023/05/15 10:24:52;;;;;;;10.25;7.50;;;;;;;;;;5077589;28;20048;-83
2023/05/15 10:27:20;;;;;;;9.20;6.57;;;;;;;;;;5079690;28;20134;-84
2023/05/15 10:29:46;;;;;;;6.72;6.20;;;;;;;;;;5076909;28;20051;-84
2023/05/15 10:32:12;;;;;;;7.53;5.97;;;;;;;;;;5078738;28;20058;-84
2023/05/15 10:34:39;;;;;;;6.53;5.50;;;;;;;;;;5057107;28;20036;-83
2023/05/15 10:37:05;;;;;;;7.25;6.18;;;;;;;;;;5058729;28;20044;-84
2023/05/15 10:39:32;;;;;;;8.48;5.35;;;;;;;;;;5056090;28;20709;-84
2023/05/15 10:41:59;;;;;;;5.70;5.13;;;;;;;;;;5087881;28;20051;-83
2023/05/15 10:44:25;;;;;;;5.38;4.63;;;;;;;;;;5050269;28;20115;-83
2023/05/15 10:46:51;;;;;;;5.43;4.93;;;;;;;;;;5046695;28;20092;-84
2023/05/15 10:49:17;;;;;;;6.03;4.63;;;;;;;;;;5048954;28;20036;-84
2023/05/15 10:51:43;;;;;;;8.30;4.93;;;;;;;;;;5064828;28;20039;-83
2023/05/15 10:54:10;;;;;;;5.93;4.70;;;;;;;;;;5061476;28;20055;-84
2023/05/15 10:56:39;;;;;;;7.32;5.30;;;;;;;;;;5061957;28;20040;-84
2023/05/15 10:59:09;;;;;;;17.48;5.47;;;;;;;;;;5044440;28;20043;-83
2023/05/15 11:01:36;;;;;;;5.47;4.82;;;;;;;;;;5062162;28;20432;-84
2023/05/15 11:04:08;;;;;;;5.03;4.47;;;;;;;;;;5079543;28;20048;-84
2023/05/15 11:06:35;;;;;;;7.15;5.13;;;;;;;;;;5060938;28;20416;-84
2023/05/15 11:09:20;;;;;;;6.47;4.97;;;;;;;;;;5061751;28;20070;-84
2023/05/15 11:11:59;;;;;;;5.97;4.65;;;;;;;;;;5063479;28;20054;-84
2023/05/15 11:14:26;;;;;;;6.88;5.05;;;;;;;;;;5069354;28;20040;-84
2023/05/15 11:16:52;;;;;;;8.45;4.75;;;;;;;;;;5052048;28;20040;-84
2023/05/15 11:19:22;;;;;;;7.63;5.13;;;;;;;;;;5047711;28;20036;-84
2023/05/15 11:21:58;;;;;;;5.47;4.75;;;;;;;;;;5069719;28;20127;-84
2023/05/15 11:24:45;;;;;;;5.18;4.55;;;;;;;;;;5047690;28;20044;-84
2023/05/15 11:27:12;;;;;;;6.38;5.60;;;;;;;;;;5063370;28;20143;-84
2023/05/15 11:29:58;;;;;;;7.38;5.38;;;;;;;;;;5063862;28;21691;-84
2023/05/15 11:32:42;;;;;;;8.90;5.70;;;;;;;;;;5045165;28;20461;-82
2023/05/15 11:35:27;;;;;;;6.28;5.60;;;;;;;;;;5067132;28;20047;-84
2023/05/15 11:37:55;;;;;;;8.15;7.35;;;;;;;;;;5048376;28;20585;-84
2023/05/15 11:40:24;;;;;;;7.43;6.38;;;;;;;;;;5061418;28;20067;-82
2023/05/15 11:43:00;;;;;;;6.78;5.82;;;;;;;;;;5053164;28;20070;-84
2023/05/15 11:45:28;;;;;;;7.07;5.90;;;;;;;;;;5064835;28;20540;-85
2023/05/15 11:47:54;;;;;;;6.45;5.85;;;;;;;;;;5051164;28;20082;-85
2023/05/15 11:50:20;;;;;;;8.98;7.25;;;;;;;;;;5044258;28;20070;-86
2023/05/15 11:52:48;;;;;;;10.35;6.85;;;;;;;;;;5059548;28;22159;-86
2023/05/15 11:55:15;;;;;;;7.30;6.60;;;;;;;;;;5061652;28;20085;-86
2023/05/15 11:57:41;;;;;;;7.20;6.13;;;;;;;;;;5068268;28;20429;-85
2023/05/15 12:00:08;;;;;;;7.10;6.43;;;;;;;;;;5062891;28;20074;-84
2023/05/15 12:02:34;;;;;;;6.60;5.30;;;;;;;;;;5062230;28;20665;-84
2023/05/15 12:05:00;;;;;;;5.90;5.30;;;;;;;;;;5061694;28;20491;-85
2023/05/15 12:07:27;;;;;;;13.32;5.88;;;;;;;;;;5049137;28;20054;-86
2023/05/15 12:09:53;;;;;;;6.38;5.32;;;;;;;;;;5049458;28;20054;-87
2023/05/15 12:12:25;;;;;;;6.57;5.80;;;;;;;;;;5062100;28;20044;-91
2023/05/15 12:14:57;;;;;;;9.52;4.80;;;;;;;;;;5040567;28;20117;-87
2023/05/15 12:17:24;;;;;;;9.80;5.78;;;;;;;;;;5079547;28;20048;-89
2023/05/15 12:19:55;;;;;;;8.82;5.57;;;;;;;;;;5057421;28;20551;-84
2023/05/15 12:22:21;;;;;;;7.30;5.20;;;;;;;;;;5061251;28;20032;-87
2023/05/15 12:24:52;;;;;;;5.88;4.95;;;;;;;;;;5063527;28;20766;-88
2023/05/15 12:28:09;;;;;;;13.60;5.75;;;;;;;;;;5064303;28;20036;-89
2023/05/15 12:30:35;;;;;;;12.80;6.20;;;;;;;;;;5079032;28;20052;-87
2023/05/15 12:33:11;;;;;;;10.25;6.03;;;;;;;;;;5082988;28;20073;-87
2023/05/15 12:35:54;;;;;;;7.97;6.20;;;;;;;;;;5079273;28;20058;-87
2023/05/15 12:38:21;;;;;;;9.75;5.72;;;;;;;;;;5081183;28;20133;-86
2023/05/15 12:40:52;;;;;;;7.63;6.30;;;;;;;;;;5060745;28;20093;-87
2023/05/15 12:43:18;;;;;;;7.55;6.50;;;;;;;;;;5075156;28;20100;-85
2023/05/15 12:45:45;;;;;;;16.55;6.00;;;;;;;;;;5069908;28;20050;-85
2023/05/15 12:48:14;;;;;;;8.02;6.15;;;;;;;;;;5068528;28;20178;-87
2023/05/15 12:50:43;;;;;;;7.75;5.65;;;;;;;;;;5074430;28;20040;-85
2023/05/15 12:53:22;;;;;;;7.50;6.78;;;;;;;;;;5091301;28;20040;-88
2023/05/15 12:55:50;;;;;;;7.10;6.22;;;;;;;;;;5074385;28;20044;-88
2023/05/15 12:58:17;;;;;;;6.55;5.78;;;;;;;;;;5069749;28;20048;-87
2023/05/15 13:00:45;;;;;;;6.70;5.70;;;;;;;;;;5046920;28;20040;-88
2023/05/15 13:03:12;;;;;;;7.38;5.50;;;;;;;;;;5062002;28;20566;-90
2023/05/15 13:05:39;;;;;;;5.38;4.88;;;;;;;;;;5057431;28;20537;-72
2023/05/15 13:08:08;;;;;;;6.88;5.57;;;;;;;;;;5060171;28;20117;-88
2023/05/15 13:10:36;;;;;;;7.47;5.72;;;;;;;;;;5060216;28;20065;-87
2023/05/15 13:13:02;;;;;;;7.47;5.85;;;;;;;;;;5062984;28;20101;-87
2023/05/15 13:15:38;;;;;;;6.40;5.30;;;;;;;;;;5065070;28;20106;-89
2023/05/15 13:18:09;;;;;;;5.72;5.03;;;;;;;;;;5066004;28;20035;-90
2023/05/15 13:20:42;;;;;;;5.85;5.25;;;;;;;;;;5047390;28;20043;-89
2023/05/15 13:23:09;;;;;;;5.20;4.80;;;;;;;;;;5061402;28;20637;-88
2023/05/15 13:25:35;;;;;;;7.18;5.95;;;;;;;;;;5043420;28;20471;-88
2023/05/15 13:28:02;;;;;;;7.55;6.85;;;;;;;;;;5077971;28;20113;-88
2023/05/15 13:30:29;;;;;;;7.63;6.13;;;;;;;;;;5044692;28;20050;-85
2023/05/15 13:33:00;;;;;;;7.55;5.70;;;;;;;;;;5063005;28;20044;-92
2023/05/15 13:35:27;;;;;;;7.00;5.63;;;;;;;;;;5069719;28;20032;-88
2023/05/15 13:37:55;;;;;;;6.00;5.40;;;;;;;;;;5054936;28;20071;-89
2023/05/15 13:40:21;;;;;;;7.65;5.40;;;;;;;;;;5073604;28;20032;-86
2023/05/15 13:42:50;;;;;;;5.60;5.03;;;;;;;;;;5077182;28;20039;-88
2023/05/15 13:45:16;;;;;;;6.28;5.68;;;;;;;;;;5059997;28;20054;-84
2023/05/15 13:47:43;;;;;;;5.00;4.55;;;;;;;;;;5091837;28;20177;-85
2023/05/15 13:50:10;;;;;;;5.10;4.70;;;;;;;;;;5078943;28;20039;-85
2023/05/15 13:52:37;;;;;;;5.53;5.03;;;;;;;;;;5054923;28;20715;-85
2023/05/15 13:55:03;;;;;;;5.32;4.82;;;;;;;;;;5065405;28;20059;-85
2023/05/15 13:57:30;;;;;;;7.03;4.90;;;;;;;;;;5050235;28;20051;-85
2023/05/15 13:59:56;;;;;;;5.07;4.60;;;;;;;;;;5065789;28;20040;-84
2023/05/15 14:02:25;;;;;;;11.57;4.90;;;;;;;;;;5063491;28;20052;-84
2023/05/15 14:04:52;;;;;;;9.23;4.72;;;;;;;;;;5051220;28;20492;-85
2023/05/15 14:07:18;;;;;;;5.63;5.05;;;;;;;;;;5050957;28;20048;-85
2023/05/15 14:09:44;;;;;;;6.45;4.80;;;;;;;;;;5065359;28;20056;-87
2023/05/15 14:12:11;;;;;;;7.93;4.30;;;;;;;;;;5066786;28;20129;-89
2023/05/15 14:14:39;;;;;;;5.20;4.28;;;;;;;;;;5064055;28;20543;-88
2023/05/15 14:17:05;;;;;;;9.15;5.00;;;;;;;;;;5081241;28;20097;-87
2023/05/15 14:19:31;;;;;;;9.40;4.38;;;;;;;;;;5060890;28;20537;-85
2023/05/15 14:22:00;;;;;;;6.40;3.95;;;;;;;;;;5084991;28;20039;-87
2023/05/15 14:24:26;;;;;;;4.72;4.13;;;;;;;;;;5078287;28;20048;-85
2023/05/15 14:26:52;;;;;;;4.60;4.20;;;;;;;;;;5084168;28;20092;-85
2023/05/15 14:29:19;;;;;;;7.45;5.00;;;;;;;;;;5074744;28;20036;-86